Time;durP1;ratioP1;P1;durP2;ratioP2;P2;SDS_P1;SDS_P2;PMS_P1;PMS_P2;Temp;Humidity;BMP_temperature;BMP_pressure;BME280_temperature;BME280_humidity;BME280_pressure;Samples;Min_cycle;Max_cycle;Signal;HPM_P1;HPM_P2
2023/03/08 00:01:21;;;;;;;8.50;4.00;;;;;;;0.56;88.01;98776.85;105578;1256;69205;-56
2023/03/08 00:03:57;;;;;;;4.70;3.10;;;;;;;0.58;87.82;98774.59;105811;1254;69884;-50
2023/03/08 00:06:25;;;;;;;5.80;2.90;;;;;;;0.58;87.72;98788.50;105540;1255;73895;-52
2023/03/08 00:08:58;;;;;;;4.30;2.40;;;;;;;0.59;87.79;98795.73;105576;1256;83595;-51
2023/03/08 00:11:27;;;;;;;3.60;2.40;;;;;;;0.58;87.67;98795.20;105625;1254;72893;-53
2023/03/08 00:13:56;;;;;;;5.30;2.80;;;;;;;0.55;87.63;98793.73;105570;1256;69778;-52
2023/03/08 00:16:24;;;;;;;4.70;2.70;;;;;;;0.54;87.70;98791.54;105921;1254;69328;-51
2023/03/08 00:18:53;;;;;;;9.90;4.50;;;;;;;0.52;87.62;98800.52;105633;1254;74790;-53
2023/03/08 00:21:21;;;;;;;4.50;2.80;;;;;;;0.49;87.83;98804.01;105496;1254;82418;-54
2023/03/08 00:23:53;;;;;;;3.40;1.90;;;;;;;0.47;87.70;98813.14;105529;1256;73916;-54
2023/03/08 00:26:22;;;;;;;4.20;2.40;;;;;;;0.49;87.48;98820.52;105827;1254;69116;-53
2023/03/08 00:28:51;;;;;;;3.30;2.10;;;;;;;0.50;87.66;98819.29;105435;1257;69144;-54
2023/03/08 00:31:20;;;;;;;2.80;1.70;;;;;;;0.54;87.86;98813.01;105705;1253;74905;-50
2023/03/08 00:33:52;;;;;;;2.00;1.60;;;;;;;0.58;87.81;98810.35;105549;1254;83522;-54
2023/03/08 00:36:21;;;;;;;3.90;2.00;;;;;;;0.62;88.03;98812.48;105837;1257;73738;-54
2023/03/08 00:38:50;;;;;;;6.60;2.80;;;;;;;0.64;87.71;98824.47;105519;1252;69186;-52
2023/03/08 00:41:18;;;;;;;4.10;2.40;;;;;;;0.62;87.79;98831.40;105718;1254;69179;-53
2023/03/08 00:43:47;;;;;;;3.70;2.20;;;;;;;0.61;87.67;98831.41;105519;1256;73957;-54
2023/03/08 00:46:15;;;;;;;3.60;1.70;;;;;;;0.59;87.77;98840.05;105693;1254;82603;-56
2023/03/08 00:48:45;;;;;;;5.00;2.60;;;;;;;0.56;87.66;98838.73;105538;1254;72695;-56
2023/03/08 00:51:17;;;;;;;4.10;2.20;;;;;;;0.54;87.82;98838.27;105523;1254;69011;-57
2023/03/08 00:53:47;;;;;;;3.80;2.50;;;;;;;0.50;87.59;98837.84;105538;1257;69247;-56
2023/03/08 00:56:15;;;;;;;3.80;2.20;;;;;;;0.49;87.25;98845.42;105570;1256;73853;-56
2023/03/08 00:58:43;;;;;;;4.70;2.00;;;;;;;0.48;87.44;98839.44;105512;1257;83595;-56
2023/03/08 01:01:16;;;;;;;3.70;2.10;;;;;;;0.48;87.58;98841.52;105540;1254;73478;-54
2023/03/08 01:03:47;;;;;;;3.80;1.70;;;;;;;0.48;87.52;98846.66;105854;1254;69041;-56
2023/03/08 01:06:16;;;;;;;2.20;1.90;;;;;;;0.48;87.53;98850.95;105422;1258;69140;-56
2023/03/08 01:08:44;;;;;;;3.70;2.00;;;;;;;0.44;87.73;98851.20;105553;1254;74856;-56
2023/03/08 01:11:22;;;;;;;4.90;2.40;;;;;;;0.43;87.87;98852.23;105601;1254;82477;-56
2023/03/08 01:13:51;;;;;;;4.90;2.30;;;;;;;0.42;88.06;98848.14;105529;1253;72716;-55
2023/03/08 01:16:29;;;;;;;4.00;2.30;;;;;;;0.39;87.80;98846.66;105521;1254;69201;-56
2023/03/08 01:19:00;;;;;;;4.50;2.20;;;;;;;0.40;87.84;98850.25;105567;1254;69167;-56
2023/03/08 01:21:29;;;;;;;3.20;2.10;;;;;;;0.38;87.80;98851.48;105496;1254;74812;-56
2023/03/08 01:23:57;;;;;;;5.80;2.40;;;;;;;0.37;88.07;98856.15;105305;1254;82578;-57
2023/03/08 01:26:28;;;;;;;6.20;1.80;;;;;;;0.37;88.15;98859.41;105640;1254;73514;-57
2023/03/08 01:28:57;;;;;;;6.70;2.00;;;;;;;0.35;88.03;98860.48;105565;1254;69215;-56
2023/03/08 01:31:29;;;;;;;6.10;2.00;;;;;;;0.32;88.26;98863.66;105532;1255;69150;-56
2023/03/08 01:33:59;;;;;;;3.20;2.00;;;;;;;0.29;88.52;98858.39;105557;1256;75082;-56
2023/03/08 01:36:28;;;;;;;3.80;2.30;;;;;;;0.26;88.50;98857.92;105535;1257;83307;-56
2023/03/08 01:38:59;;;;;;;6.90;2.30;;;;;;;0.23;88.61;98864.88;105527;1254;73666;-55
2023/03/08 01:41:29;;;;;;;4.70;2.10;;;;;;;0.20;88.47;98860.42;105396;1255;69074;-56
2023/03/08 01:43:57;;;;;;;2.70;1.70;;;;;;;0.22;88.33;98859.89;105616;1257;69190;-56
2023/03/08 01:46:26;;;;;;;7.50;1.90;;;;;;;0.21;88.41;98857.16;105544;1257;74911;-55
2023/03/08 01:49:17;;;;;;;3.10;1.40;;;;;;;0.21;88.53;98864.36;105561;1257;83156;-55
2023/03/08 01:51:49;;;;;;;5.60;2.00;;;;;;;0.25;88.77;98861.90;105583;1257;72818;-56
2023/03/08 01:54:22;;;;;;;3.10;1.70;;;;;;;0.28;88.77;98866.48;105844;1256;69144;-54
2023/03/08 01:56:52;;;;;;;3.50;1.90;;;;;;;0.31;88.80;98862.83;105503;1253;69170;-56
2023/03/08 01:59:21;;;;;;;3.70;1.70;;;;;;;0.29;88.77;98858.38;105412;1254;74951;-55
2023/03/08 02:01:50;;;;;;;3.30;2.20;;;;;;;0.26;88.73;98860.67;105571;1254;83694;-55
2023/03/08 02:04:19;;;;;;;4.60;2.60;;;;;;;0.23;88.94;98861.59;105584;1254;72750;-56
2023/03/08 02:06:48;;;;;;;4.50;2.10;;;;;;;0.21;89.09;98861.45;105367;1257;69240;-54
2023/03/08 02:09:20;;;;;;;5.50;2.60;;;;;;;0.18;88.97;98866.31;105561;1255;69179;-54
2023/03/08 02:11:48;;;;;;;8.40;2.70;;;;;;;0.19;88.99;98872.48;105598;1256;74931;-53
2023/03/08 02:14:16;;;;;;;4.70;2.70;;;;;;;0.20;88.81;98882.61;105468;1252;83575;-55
2023/03/08 02:16:47;;;;;;;3.90;3.20;;;;;;;0.19;88.82;98880.22;105538;1256;73727;-54
2023/03/08 02:19:20;;;;;;;4.40;2.80;;;;;;;0.19;88.92;98877.81;105224;1254;69177;-54
2023/03/08 02:21:49;;;;;;;4.60;3.60;;;;;;;0.18;88.97;98878.86;105698;1252;69180;-52
2023/03/08 02:24:21;;;;;;;6.50;3.20;;;;;;;0.15;89.15;98879.61;105287;1255;75093;-56
2023/03/08 02:26:52;;;;;;;4.00;3.20;;;;;;;0.14;89.31;98881.69;105303;1253;83548;-56
2023/03/08 02:29:20;;;;;;;5.10;3.10;;;;;;;0.13;89.50;98881.18;105528;1254;74420;-55
2023/03/08 02:31:48;;;;;;;8.10;3.80;;;;;;;0.12;89.46;98882.94;105472;1254;69080;-54
2023/03/08 02:34:16;;;;;;;5.50;3.60;;;;;;;0.08;89.15;98885.41;105498;1254;69112;-55
2023/03/08 02:36:44;;;;;;;8.60;3.40;;;;;;;0.08;89.16;98889.53;105535;1256;73026;-53
2023/03/08 02:39:13;;;;;;;4.40;2.80;;;;;;;0.09;89.20;98891.41;105538;1256;83122;-53
2023/03/08 02:41:41;;;;;;;5.40;3.20;;;;;;;0.07;89.11;98886.64;105543;1253;73530;-54
2023/03/08 02:44:09;;;;;;;3.90;2.70;;;;;;;0.08;89.39;98889.02;105475;1254;69122;-55
2023/03/08 02:46:37;;;;;;;5.60;3.00;;;;;;;0.08;89.34;98889.52;105384;1257;69158;-52
2023/03/08 02:49:06;;;;;;;5.00;3.20;;;;;;;0.08;89.25;98898.98;105522;1256;73829;-52
2023/03/08 02:51:34;;;;;;;4.80;2.80;;;;;;;0.04;89.30;98896.15;105627;1254;81648;-53
2023/03/08 02:54:02;;;;;;;6.10;3.00;;;;;;;0.00;89.51;98896.20;105490;1254;71778;-54
2023/03/08 02:56:31;;;;;;;4.40;3.10;;;;;;;-0.02;89.54;98894.70;105466;1257;69142;-53
2023/03/08 02:58:59;;;;;;;9.90;3.00;;;;;;;-0.05;89.52;98892.00;105411;1254;69996;-51
2023/03/08 03:01:28;;;;;;;7.80;4.00;;;;;;;-0.06;89.69;98894.77;105495;1253;75115;-50
2023/03/08 03:03:56;;;;;;;7.20;3.70;;;;;;;-0.04;89.45;98904.36;105533;1254;83353;-50
2023/03/08 03:06:24;;;;;;;4.70;2.90;;;;;;;-0.04;89.42;98909.84;105606;1256;72387;-50
2023/03/08 03:08:55;;;;;;;4.60;2.70;;;;;;;-0.03;89.55;98913.95;105494;1254;69980;-50
2023/03/08 03:11:24;;;;;;;7.10;2.70;;;;;;;-0.02;89.68;98913.92;105534;1253;69881;-49
2023/03/08 03:13:55;;;;;;;5.60;2.90;;;;;;;0.00;89.71;98916.30;105512;1256;73749;-49
2023/03/08 03:16:25;;;;;;;5.10;2.50;;;;;;;0.01;89.82;98913.38;105375;1257;83434;-51
2023/03/08 03:18:55;;;;;;;8.30;3.00;;;;;;;-0.01;90.02;98914.25;105569;1257;72449;-51
2023/03/08 03:21:24;;;;;;;6.20;3.10;;;;;;;0.00;90.31;98919.39;105558;1257;70100;-50
2023/03/08 03:23:54;;;;;;;4.80;2.80;;;;;;;0.01;90.38;98920.92;105470;1257;70056;-50
2023/03/08 03:26:26;;;;;;;5.80;3.40;;;;;;;0.01;90.42;98928.31;105534;1256;73283;-52
2023/03/08 03:28:56;;;;;;;5.60;2.90;;;;;;;0.00;90.18;98929.52;105589;1256;83902;-50
2023/03/08 03:31:27;;;;;;;5.70;2.40;;;;;;;0.02;90.02;98934.12;105356;1258;72019;-50
2023/03/08 03:33:55;;;;;;;3.20;2.10;;;;;;;0.03;90.02;98932.40;105572;1253;69811;-51
2023/03/08 03:36:25;;;;;;;7.50;2.50;;;;;;;0.05;90.01;98930.81;105494;1254;69883;-48
2023/03/08 03:38:54;;;;;;;4.70;2.10;;;;;;;0.05;90.09;98934.92;105496;1255;73085;-51
2023/03/08 03:41:22;;;;;;;4.60;2.50;;;;;;;0.07;89.95;98940.90;105598;1256;82922;-50
2023/03/08 03:43:59;;;;;;;4.70;2.80;;;;;;;0.07;90.10;98949.31;105502;1257;72833;-50
2023/03/08 03:46:28;;;;;;;6.10;3.20;;;;;;;0.07;90.20;98955.52;105587;1253;69986;-50
2023/03/08 03:48:57;;;;;;;6.50;3.00;;;;;;;0.07;90.42;98957.05;105566;1254;70063;-48
2023/03/08 03:51:28;;;;;;;4.80;3.10;;;;;;;0.07;90.56;98952.92;105557;1256;73963;-50
2023/03/08 03:54:06;;;;;;;5.40;3.70;;;;;;;0.08;90.68;98952.39;105480;1254;83893;-51
2023/03/08 03:56:35;;;;;;;6.00;3.30;;;;;;;0.08;90.50;98957.71;105553;1253;73766;-51
2023/03/08 03:59:04;;;;;;;5.10;3.00;;;;;;;0.07;90.57;98959.80;105538;1255;69986;-50
2023/03/08 04:01:32;;;;;;;4.70;2.50;;;;;;;0.13;90.62;98967.77;105747;1257;70072;-50
2023/03/08 04:04:11;;;;;;;3.80;2.00;;;;;;;0.15;90.29;98976.48;105509;1256;75216;-48
2023/03/08 04:06:41;;;;;;;3.60;1.60;;;;;;;0.17;90.39;98978.34;105317;1254;83560;-49
2023/03/08 04:09:14;;;;;;;4.20;1.60;;;;;;;0.21;90.48;98977.41;105498;1256;72297;-51
2023/03/08 04:11:44;;;;;;;4.40;1.60;;;;;;;0.24;90.47;98971.86;105561;1254;69920;-48
2023/03/08 04:14:16;;;;;;;2.80;1.20;;;;;;;0.27;90.35;98977.98;105490;1254;69881;-50
2023/03/08 04:16:45;;;;;;;2.30;1.20;;;;;;;0.26;90.21;98978.88;105587;1256;74848;-49
2023/03/08 04:19:20;;;;;;;2.20;1.40;;;;;;;0.25;90.33;98975.45;105546;1257;83345;-49
2023/03/08 04:21:51;;;;;;;3.70;1.80;;;;;;;0.23;90.20;98974.63;105533;1254;73971;-49
2023/03/08 04:24:20;;;;;;;4.00;1.80;;;;;;;0.21;90.15;98964.88;105661;1254;69940;-49
2023/03/08 04:26:50;;;;;;;4.00;2.20;;;;;;;0.19;90.15;98966.98;105543;1254;70025;-49
2023/03/08 04:29:19;;;;;;;6.60;2.60;;;;;;;0.15;90.03;98976.48;105508;1253;75153;-51
2023/03/08 04:31:47;;;;;;;3.30;2.10;;;;;;;0.13;90.02;98976.70;105853;1256;83298;-50
2023/03/08 04:34:17;;;;;;;5.20;2.30;;;;;;;0.16;90.21;98979.55;105496;1256;73011;-48
2023/03/08 04:36:48;;;;;;;;;;;;;;;0.19;90.07;98987.77;105337;1257;70085;-50
2023/03/08 04:39:16;;;;;;;5.70;2.40;;;;;;;0.21;90.03;98999.23;105404;1253;69923;-51
2023/03/08 04:41:45;;;;;;;5.40;2.50;;;;;;;0.21;90.00;99000.95;105532;1254;74653;-49
2023/03/08 04:44:22;;;;;;;8.30;2.60;;;;;;;0.22;90.03;99000.06;105548;1253;83522;-50
2023/03/08 04:46:52;;;;;;;4.20;2.90;;;;;;;0.26;90.03;98998.45;105561;1256;71860;-49
2023/03/08 04:49:28;;;;;;;4.60;2.70;;;;;;;0.26;90.07;98996.92;105522;1254;69932;-51
2023/03/08 04:52:00;;;;;;;7.70;2.90;;;;;;;0.24;90.08;98991.09;105655;1256;69928;-50
2023/03/08 04:54:29;;;;;;;18.80;6.70;;;;;;;0.25;90.08;98996.75;105589;1254;74939;-48
2023/03/08 04:57:02;;;;;;;20.10;7.30;;;;;;;0.24;90.00;99003.65;105579;1254;83696;-50
2023/03/08 04:59:31;;;;;;;30.10;12.10;;;;;;;0.27;89.88;99002.39;105422;1257;73873;-49
2023/03/08 05:02:02;;;;;;;16.80;7.30;;;;;;;0.29;89.83;99001.15;105515;1254;69817;-48
2023/03/08 05:04:33;;;;;;;5.20;3.20;;;;;;;0.30;89.94;99000.95;105462;1254;69884;-49
2023/03/08 05:07:01;;;;;;;5.00;3.20;;;;;;;0.32;89.85;99000.59;105542;1256;75012;-48
2023/03/08 05:09:32;;;;;;;8.10;3.60;;;;;;;0.30;89.78;99008.00;105555;1254;83404;-49
2023/03/08 05:12:01;;;;;;;7.80;3.90;;;;;;;0.29;90.03;99010.43;105835;1256;72841;-50
2023/03/08 05:14:39;;;;;;;7.00;3.50;;;;;;;0.29;90.08;99014.36;105368;1258;69992;-50
2023/03/08 05:17:07;;;;;;;7.80;4.20;;;;;;;0.29;90.03;99012.14;105445;1254;69983;-50
2023/03/08 05:19:35;;;;;;;6.60;4.10;;;;;;;0.30;90.01;99006.63;105341;1254;74038;-49
2023/03/08 05:22:04;;;;;;;6.60;3.80;;;;;;;0.33;89.84;99004.16;105508;1254;83677;-50
2023/03/08 05:24:34;;;;;;;8.80;3.90;;;;;;;0.34;89.79;99004.83;105522;1256;73820;-49
2023/03/08 05:27:08;;;;;;;9.20;3.60;;;;;;;0.36;89.76;99008.06;105515;1253;69827;-49
2023/03/08 05:29:36;;;;;;;7.50;4.10;;;;;;;0.40;89.82;99008.34;105364;1257;70057;-51
2023/03/08 05:32:05;;;;;;;6.20;3.70;;;;;;;0.40;89.64;99009.54;105567;1256;75290;-50
2023/03/08 05:34:34;;;;;;;5.90;3.90;;;;;;;0.39;89.78;99012.83;105821;1256;83403;-49
2023/03/08 05:37:03;;;;;;;7.70;4.10;;;;;;;0.37;89.78;99014.76;105801;1256;73837;-50
2023/03/08 05:39:33;;;;;;;6.50;4.50;;;;;;;0.35;89.73;99015.63;105538;1252;69989;-48
2023/03/08 05:42:11;;;;;;;7.50;4.40;;;;;;;0.32;89.68;99021.35;105610;1252;70034;-50
2023/03/08 05:44:41;;;;;;;5.90;3.70;;;;;;;0.28;89.42;99028.99;105694;1256;74300;-48
2023/03/08 05:47:10;;;;;;;8.00;4.20;;;;;;;0.29;89.35;99033.63;105912;1251;82605;-48
2023/03/08 05:49:39;;;;;;;6.30;4.20;;;;;;;0.29;89.18;99033.27;105594;1255;71744;-50
2023/03/08 05:52:07;;;;;;;8.80;4.60;;;;;;;0.29;89.39;99032.08;105806;1251;70115;-48
2023/03/08 05:54:35;;;;;;;7.40;4.20;;;;;;;0.30;89.29;99031.02;105680;1251;70229;-47
2023/03/08 05:57:08;;;;;;;5.00;3.80;;;;;;;0.31;89.31;99037.03;105802;1252;74593;-48
2023/03/08 05:59:37;;;;;;;8.70;4.70;;;;;;;0.31;89.52;99036.00;105745;1254;81548;-47
2023/03/08 06:02:05;;;;;;;13.30;5.80;;;;;;;0.32;89.69;99034.10;105609;1253;73747;-48
2023/03/08 06:04:43;;;;;;;6.30;4.60;;;;;;;0.34;89.71;99032.85;105725;1254;71515;-48
2023/03/08 06:07:12;;;;;;;6.10;4.60;;;;;;;0.34;89.71;99034.40;105729;1254;69849;-47
2023/03/08 06:09:45;;;;;;;8.80;4.80;;;;;;;0.34;89.63;99039.38;105573;1256;73479;-50
2023/03/08 06:12:15;;;;;;;8.40;4.60;;;;;;;0.36;89.64;99041.91;105632;1252;84555;-50
2023/03/08 06:14:44;;;;;;;9.40;4.80;;;;;;;0.42;89.61;99050.75;105717;1256;72737;-47
2023/03/08 06:17:13;;;;;;;7.10;4.40;;;;;;;0.46;89.48;99049.83;105725;1256;70011;-47
2023/03/08 06:19:45;;;;;;;;;;;;;;;0.52;89.64;99056.77;105775;1256;69842;-48
2023/03/08 06:22:15;;;;;;;11.00;5.80;;;;;;;0.58;89.88;99058.54;106084;1255;74080;-48
2023/03/08 06:24:48;;;;;;;7.20;4.20;;;;;;;0.63;89.87;99058.61;105670;1253;82630;-47
2023/03/08 06:27:22;;;;;;;7.60;4.50;;;;;;;0.69;89.57;99063.66;105572;1254;73743;-48
2023/03/08 06:29:52;;;;;;;10.60;5.20;;;;;;;0.69;89.61;99066.77;105987;1256;70019;-48
2023/03/08 06:32:21;;;;;;;8.20;4.90;;;;;;;0.71;89.86;99068.61;105821;1256;70437;-48
2023/03/08 06:34:50;;;;;;;7.50;4.80;;;;;;;0.75;89.79;99068.72;105948;1251;74901;-49
2023/03/08 06:37:18;;;;;;;7.50;4.60;;;;;;;0.76;89.38;99070.43;105613;1254;83031;-47
2023/03/08 06:39:47;;;;;;;7.80;5.10;;;;;;;0.73;89.31;99076.65;105701;1254;73951;-46
2023/03/08 06:42:15;;;;;;;8.70;5.10;;;;;;;0.69;89.07;99079.66;105666;1254;69986;-47
2023/03/08 06:44:44;;;;;;;7.30;4.60;;;;;;;0.67;89.25;99082.95;106002;1251;69843;-48
2023/03/08 06:47:12;;;;;;;7.20;4.60;;;;;;;0.71;89.03;99081.52;105629;1251;74928;-46
2023/03/08 06:49:41;;;;;;;6.30;4.00;;;;;;;0.76;88.89;99086.41;105756;1251;84893;-56
2023/03/08 06:52:09;;;;;;;6.00;3.80;;;;;;;0.76;88.72;99088.14;105934;1253;72477;-47
2023/03/08 06:54:38;;;;;;;7.70;3.80;;;;;;;0.76;88.45;99086.57;105590;1254;69992;-46
2023/03/08 06:57:06;;;;;;;5.20;3.40;;;;;;;0.78;88.90;99087.56;105590;1256;70583;-47
2023/03/08 06:59:34;;;;;;;7.30;4.30;;;;;;;0.82;88.82;99085.77;105583;1254;75230;-48
2023/03/08 07:02:02;;;;;;;6.30;4.30;;;;;;;0.83;88.72;99089.72;105567;1252;83516;-50
2023/03/08 07:04:30;;;;;;;7.40;4.60;;;;;;;0.83;88.66;99088.85;105643;1254;73556;-48
2023/03/08 07:06:59;;;;;;;7.00;4.40;;;;;;;0.82;88.57;99088.02;105537;1254;69879;-47
2023/03/08 07:09:27;;;;;;;6.80;4.40;;;;;;;0.83;88.65;99090.23;105703;1254;69922;-47
2023/03/08 07:11:55;;;;;;;5.70;3.80;;;;;;;0.90;88.55;99093.89;105359;1254;74965;-48
2023/03/08 07:14:23;;;;;;;7.00;3.90;;;;;;;0.95;88.35;99093.98;105433;1254;83754;-49
2023/03/08 07:16:52;;;;;;;5.50;3.40;;;;;;;0.99;88.20;99093.89;105400;1252;73906;-50
2023/03/08 07:19:20;;;;;;;6.00;3.40;;;;;;;1.05;88.33;99097.91;105346;1256;69941;-47
2023/03/08 07:21:48;;;;;;;4.60;3.00;;;;;;;1.10;88.25;99096.78;105459;1254;69935;-50
2023/03/08 07:24:17;;;;;;;5.50;3.60;;;;;;;1.11;88.31;99102.09;105868;1254;74674;-49
2023/03/08 07:26:45;;;;;;;6.60;4.00;;;;;;;1.13;88.26;99101.55;105510;1256;83585;-49
2023/03/08 07:29:13;;;;;;;6.70;4.30;;;;;;;1.12;88.29;99104.66;105482;1256;73157;-52
2023/03/08 07:31:41;;;;;;;6.50;4.70;;;;;;;1.10;88.17;99111.39;105458;1256;69928;-50
2023/03/08 07:34:09;;;;;;;7.60;4.60;;;;;;;1.09;88.42;99119.84;105551;1254;70002;-51
2023/03/08 07:36:38;;;;;;;5.90;3.30;;;;;;;1.09;88.20;99120.88;105504;1256;74951;-51
2023/03/08 07:39:07;;;;;;;4.40;3.10;;;;;;;1.09;87.89;99124.49;105588;1253;83463;-50
2023/03/08 07:41:35;;;;;;;4.60;2.90;;;;;;;1.09;87.92;99125.36;105508;1256;73523;-49
2023/03/08 07:44:04;;;;;;;4.80;3.00;;;;;;;1.09;87.90;99121.73;105851;1254;70006;-48
2023/03/08 07:46:32;;;;;;;5.20;3.00;;;;;;;1.09;88.08;99120.35;105579;1254;69970;-51
2023/03/08 07:49:00;;;;;;;3.40;2.40;;;;;;;1.11;88.11;99125.14;105522;1256;74407;-50
2023/03/08 07:51:28;;;;;;;4.80;2.70;;;;;;;1.15;88.16;99124.55;105503;1254;83046;-51
2023/03/08 07:53:57;;;;;;;4.40;3.20;;;;;;;1.20;88.45;99117.39;105524;1254;72798;-51
2023/03/08 07:56:25;;;;;;;5.10;3.30;;;;;;;1.26;88.33;99115.73;105499;1254;69803;-53
2023/03/08 07:58:56;;;;;;;4.50;3.00;;;;;;;1.32;88.30;99115.78;105521;1254;69893;-52
2023/03/08 08:01:24;;;;;;;5.80;3.20;;;;;;;1.38;88.06;99114.98;105564;1257;75303;-53
2023/03/08 08:03:52;;;;;;;4.60;2.80;;;;;;;1.43;88.09;99115.90;105870;1256;83905;-51
2023/03/08 08:06:20;;;;;;;4.70;2.40;;;;;;;1.52;88.00;99115.73;105497;1256;73019;-53
2023/03/08 08:08:49;;;;;;;3.40;2.50;;;;;;;1.63;87.74;99114.11;105481;1254;69819;-53
2023/03/08 08:11:20;;;;;;;4.00;2.60;;;;;;;1.70;87.37;99112.58;105508;1254;69848;-52
2023/03/08 08:13:49;;;;;;;4.10;2.70;;;;;;;1.79;87.36;99113.06;105529;1256;75229;-51
2023/03/08 08:16:17;;;;;;;3.40;2.50;;;;;;;1.87;87.39;99115.48;105517;1254;83349;-54
2023/03/08 08:18:45;;;;;;;5.00;2.50;;;;;;;1.96;87.51;99115.45;105533;1253;73540;-52
2023/03/08 08:21:15;;;;;;;10.10;3.70;;;;;;;2.05;87.20;99115.61;105498;1252;69880;-51
2023/03/08 08:23:43;;;;;;;8.50;4.00;;;;;;;2.16;87.28;99117.40;105872;1254;69730;-51
2023/03/08 08:26:14;;;;;;;6.80;3.10;;;;;;;2.29;87.08;99125.20;105620;1256;74197;-51
2023/03/08 08:28:43;;;;;;;8.10;3.70;;;;;;;2.39;86.81;99127.73;105535;1254;83675;-49
2023/03/08 08:31:15;;;;;;;8.90;4.00;;;;;;;2.41;86.19;99127.16;105513;1254;73077;-50
2023/03/08 08:33:43;;;;;;;11.10;5.30;;;;;;;2.43;85.76;99126.40;105550;1256;69894;-50
2023/03/08 08:36:14;;;;;;;6.40;3.80;;;;;;;2.51;85.84;99131.73;105738;1254;69887;-51
2023/03/08 08:38:44;;;;;;;6.70;4.20;;;;;;;2.53;85.52;99134.63;105510;1257;73824;-51
2023/03/08 08:41:15;;;;;;;5.60;3.20;;;;;;;2.55;85.14;99134.90;105486;1254;81760;-52
2023/03/08 08:43:44;;;;;;;4.90;2.70;;;;;;;2.46;84.48;99132.55;105476;1254;109297;-49
2023/03/08 08:46:14;;;;;;;8.80;3.80;;;;;;;2.31;84.37;99135.68;105550;1254;69833;-51
2023/03/08 08:48:42;;;;;;;8.60;4.80;;;;;;;2.19;84.44;99129.92;105740;1256;69890;-51
2023/03/08 08:51:12;;;;;;;13.10;6.20;;;;;;;2.11;84.45;99127.17;105626;1256;74258;-50
2023/03/08 08:53:42;;;;;;;13.70;5.50;;;;;;;2.05;84.29;99118.52;105559;1256;84563;-51
2023/03/08 08:56:16;;;;;;;9.20;4.90;;;;;;;2.02;84.59;99113.94;105846;1255;72639;-48
2023/03/08 08:58:58;;;;;;;6.10;4.20;;;;;;;1.99;85.05;99111.41;105710;1253;71423;-49
2023/03/08 09:01:27;;;;;;;;;;;;;;;2.02;84.98;99113.61;105519;1255;69877;-50
2023/03/08 09:03:55;;;;;;;5.60;3.80;;;;;;;2.05;84.58;99113.54;105565;1254;75010;-49
2023/03/08 09:06:26;;;;;;;6.80;3.80;;;;;;;2.08;84.72;99113.45;105891;1256;83177;-48
2023/03/08 09:08:56;;;;;;;4.80;3.70;;;;;;;2.10;84.38;99107.21;105537;1254;72563;-48
2023/03/08 09:11:26;;;;;;;8.80;4.90;;;;;;;2.12;84.40;99108.71;105782;1256;69919;-48
2023/03/08 09:13:55;;;;;;;6.90;4.10;;;;;;;2.12;84.23;99100.96;105544;1252;69983;-47
2023/03/08 09:16:26;;;;;;;7.70;4.10;;;;;;;2.15;84.33;99098.81;105552;1256;75588;-50
2023/03/08 09:18:56;;;;;;;8.10;4.20;;;;;;;2.20;84.78;99095.58;105740;1256;83484;-49
2023/03/08 09:21:25;;;;;;;6.50;4.40;;;;;;;2.26;84.40;99087.54;105629;1256;72356;-51
2023/03/08 09:23:54;;;;;;;13.20;7.00;;;;;;;2.34;84.84;99094.40;105577;1257;69942;-50
2023/03/08 09:26:22;;;;;;;8.00;5.30;;;;;;;2.40;84.66;99091.14;105550;1254;69801;-49
2023/03/08 09:28:51;;;;;;;9.10;5.70;;;;;;;2.47;84.67;99092.86;105746;1256;74545;-50
2023/03/08 09:31:19;;;;;;;10.50;5.10;;;;;;;2.52;84.44;99094.99;105509;1254;82919;-50
2023/03/08 09:33:50;;;;;;;8.60;5.40;;;;;;;2.49;84.30;99091.44;105482;1256;73046;-50
2023/03/08 09:36:19;;;;;;;6.80;5.10;;;;;;;2.50;84.39;99087.80;105528;1256;69993;-50
2023/03/08 09:38:49;;;;;;;9.40;4.20;;;;;;;2.56;83.89;99086.63;105573;1256;70545;-51
2023/03/08 09:41:29;;;;;;;6.60;3.70;;;;;;;2.55;83.60;99085.94;105554;1256;75289;-49
2023/03/08 09:44:42;;;;;;;6.40;3.80;;;;;;;2.62;83.63;99080.94;105352;1254;82789;-50
2023/03/08 09:47:13;;;;;;;6.80;3.70;;;;;;;2.79;84.21;99077.02;105573;1254;73883;-48
2023/03/08 09:49:45;;;;;;;7.50;4.30;;;;;;;2.90;83.92;99076.92;105504;1253;69897;-50
2023/03/08 09:52:42;;;;;;;6.70;4.10;;;;;;;3.00;83.98;99071.48;105856;1254;69817;-49
2023/03/08 09:55:28;;;;;;;8.10;4.60;;;;;;;3.18;84.16;99067.01;105546;1256;74987;-49
2023/03/08 09:58:21;;;;;;;8.10;4.70;;;;;;;3.32;83.89;99069.70;105505;1254;83219;-49
2023/03/08 10:00:50;;;;;;;7.20;4.50;;;;;;;3.46;83.97;99062.91;105773;1256;72928;-49
2023/03/08 10:04:07;;;;;;;6.50;4.30;;;;;;;3.57;83.52;99057.23;105602;1255;69926;-50
2023/03/08 10:06:42;;;;;;;7.40;4.60;;;;;;;3.69;83.12;99055.33;105397;1256;69999;-50
2023/03/08 10:09:24;;;;;;;7.60;4.60;;;;;;;3.71;82.85;99051.98;105694;1256;75000;-52
2023/03/08 10:12:30;;;;;;;8.30;4.80;;;;;;;3.75;82.66;99050.27;105640;1256;83202;-49
2023/03/08 10:15:10;;;;;;;9.00;5.90;;;;;;;3.83;82.27;99043.65;105572;1256;73533;-48
2023/03/08 10:18:01;;;;;;;8.00;5.40;;;;;;;3.85;81.95;99044.63;105394;1254;70986;-49
2023/03/08 10:20:40;;;;;;;6.50;5.20;;;;;;;3.84;81.97;99040.00;105587;1254;70008;-51
2023/03/08 10:23:20;;;;;;;9.90;6.80;;;;;;;3.90;82.13;99039.96;105536;1254;74537;-50
2023/03/08 10:25:49;;;;;;;9.30;5.30;;;;;;;3.95;81.83;99039.45;105524;1254;83733;-49
2023/03/08 10:28:22;;;;;;;6.00;4.20;;;;;;;4.02;81.79;99028.19;105480;1256;72061;-49
2023/03/08 10:30:55;;;;;;;7.00;4.20;;;;;;;4.09;81.44;99030.05;105480;1254;69987;-50
2023/03/08 10:33:26;;;;;;;6.50;4.30;;;;;;;4.21;81.74;99028.95;105512;1252;69933;-50
2023/03/08 10:36:08;;;;;;;7.10;5.00;;;;;;;4.35;81.82;99022.25;105516;1254;74863;-49
2023/03/08 10:38:37;;;;;;;8.90;4.80;;;;;;;4.52;81.48;99019.61;105550;1252;81645;-49
2023/03/08 10:41:14;;;;;;;7.30;4.50;;;;;;;4.47;80.99;99018.41;105483;1254;73754;-50
2023/03/08 10:43:49;;;;;;;7.20;5.10;;;;;;;4.39;80.94;99020.55;105625;1254;69870;-50
2023/03/08 10:46:20;;;;;;;8.00;5.00;;;;;;;4.45;81.24;99015.86;105517;1256;69951;-49
2023/03/08 10:48:49;;;;;;;7.00;4.30;;;;;;;4.56;81.37;99019.11;105504;1256;74012;-48
2023/03/08 10:51:21;;;;;;;4.80;3.70;;;;;;;4.52;80.52;99019.95;105495;1259;83474;-50
2023/03/08 10:53:56;;;;;;;5.40;3.60;;;;;;;4.46;80.50;99018.07;105759;1254;73642;-49
2023/03/08 10:56:38;;;;;;;5.40;3.70;;;;;;;4.52;80.67;99014.08;105494;1253;69861;-51
2023/03/08 10:59:16;;;;;;;6.60;4.20;;;;;;;4.48;80.26;99010.75;105527;1252;70057;-49
2023/03/08 11:01:50;;;;;;;7.30;4.70;;;;;;;4.44;80.29;99005.36;105522;1256;73960;-48
2023/03/08 11:04:20;;;;;;;7.80;4.70;;;;;;;4.50;80.60;99004.78;105661;1254;83422;-49
2023/03/08 11:06:49;;;;;;;6.20;4.50;;;;;;;4.62;80.80;99000.55;105509;1256;72812;-50
2023/03/08 11:09:28;;;;;;;5.40;3.60;;;;;;;4.78;80.75;98999.16;105502;1256;70002;-49
2023/03/08 11:11:58;;;;;;;5.10;3.30;;;;;;;4.88;80.11;98995.84;105512;1254;69980;-49
2023/03/08 11:14:28;;;;;;;4.60;3.10;;;;;;;4.90;79.65;98986.59;105577;1256;72816;-49
2023/03/08 11:17:04;;;;;;;6.10;3.20;;;;;;;4.95;79.57;98981.40;105527;1254;83856;-49
2023/03/08 11:19:41;;;;;;;4.50;3.00;;;;;;;5.00;79.59;98969.79;105473;1255;72866;-48
2023/03/08 11:22:48;;;;;;;5.60;3.00;;;;;;;5.23;80.07;98965.45;105429;1256;69998;-49
2023/03/08 11:25:32;;;;;;;5.70;3.20;;;;;;;5.52;79.80;98956.71;105489;1254;69971;-49
2023/03/08 11:28:07;;;;;;;4.80;2.60;;;;;;;5.70;79.39;98952.87;105798;1254;74304;-49
2023/03/08 11:30:44;;;;;;;4.10;2.90;;;;;;;5.89;79.30;98948.09;105620;1253;83881;-50
2023/03/08 11:33:30;;;;;;;4.60;3.30;;;;;;;6.09;78.49;98945.90;105465;1256;73901;-49
2023/03/08 11:36:20;;;;;;;3.40;2.70;;;;;;;6.25;78.64;98944.23;105813;1256;69881;-49
2023/03/08 11:39:05;;;;;;;4.20;3.10;;;;;;;6.39;77.68;98944.83;105727;1254;69875;-50
2023/03/08 11:41:43;;;;;;;4.60;3.30;;;;;;;6.39;77.34;98941.53;105614;1254;74612;-49
2023/03/08 11:44:26;;;;;;;3.70;2.80;;;;;;;6.42;77.69;98938.80;105372;1254;83656;-48
2023/03/08 11:47:26;;;;;;;3.70;2.60;;;;;;;6.47;76.96;98930.60;105474;1256;73894;-49
2023/03/08 11:50:15;;;;;;;4.00;2.60;;;;;;;6.57;76.90;98927.55;105451;1256;69991;-50
2023/03/08 11:53:08;;;;;;;5.60;3.00;;;;;;;6.48;76.24;98921.00;105539;1256;69931;-50
2023/03/08 11:56:01;;;;;;;5.50;3.40;;;;;;;6.44;76.53;98925.67;105766;1255;73873;-47